Time;durP1;ratioP1;P1;durP2;ratioP2;P2;SDS_P1;SDS_P2;PMS_P1;PMS_P2;Temp;Humidity;BMP_temperature;BMP_pressure;BME280_temperature;BME280_humidity;BME280_pressure;Samples;Min_cycle;Max_cycle;Signal;HPM_P1;HPM_P2
2022/04/02 00:01:58;;;;;;;8.70;7.33;;;1.10;99.90;;;;;;5072550;28;20215;-69
2022/04/02 00:04:26;;;;;;;11.80;8.50;;;1.10;99.90;;;;;;5073880;28;20612;-68
2022/04/02 00:06:53;;;;;;;11.93;9.40;;;1.10;99.90;;;;;;5072757;28;20295;-67
2022/04/02 00:09:21;;;;;;;10.73;8.70;;;1.20;99.90;;;;;;5059919;28;20205;-69
2022/04/02 00:11:47;;;;;;;12.20;9.23;;;1.20;99.90;;;;;;5073498;28;20594;-68
2022/04/02 00:14:15;;;;;;;12.53;9.17;;;1.20;99.90;;;;;;5071707;28;20272;-68
2022/04/02 00:16:42;;;;;;;12.50;8.50;;;1.30;99.90;;;;;;5068565;28;20692;-68
2022/04/02 00:19:09;;;;;;;9.73;7.97;;;1.20;99.90;;;;;;5073857;28;20554;-69
2022/04/02 00:21:38;;;;;;;9.53;8.27;;;1.10;99.90;;;;;;5072890;28;20225;-68
2022/04/02 00:24:06;;;;;;;12.23;9.73;;;1.10;99.90;;;;;;5069788;28;20201;-68
2022/04/02 00:26:34;;;;;;;14.83;10.90;;;1.10;99.90;;;;;;5073778;28;20201;-69
2022/04/02 00:29:00;;;;;;;12.27;10.57;;;1.10;99.90;;;;;;5073322;28;20201;-69
2022/04/02 00:31:29;;;;;;;11.43;9.40;;;1.10;99.90;;;;;;5071811;28;20209;-68
2022/04/02 00:33:57;;;;;;;13.23;11.10;;;1.10;99.90;;;;;;5073456;28;20221;-69
2022/04/02 00:36:24;;;;;;;14.23;12.10;;;1.10;99.90;;;;;;5072505;28;20204;-68
2022/04/02 00:38:52;;;;;;;16.03;12.30;;;1.10;99.90;;;;;;5074131;28;20209;-68
2022/04/02 00:41:19;;;;;;;18.10;12.13;;;1.20;99.90;;;;;;5072667;28;20247;-70
2022/04/02 00:43:57;;;;;;;11.67;9.77;;;1.20;99.90;;;;;;5064404;28;20297;-68
2022/04/02 00:46:24;;;;;;;12.63;9.13;;;1.10;99.90;;;;;;5065549;28;20336;-68
2022/04/02 00:48:54;;;;;;;14.37;12.23;;;1.10;99.90;;;;;;5068124;28;20237;-69
2022/04/02 00:51:22;;;;;;;16.37;12.90;;;1.10;99.90;;;;;;5064513;28;20201;-68
2022/04/02 00:53:50;;;;;;;16.00;12.27;;;1.10;99.90;;;;;;5060082;28;20698;-68
2022/04/02 00:56:19;;;;;;;18.97;12.73;;;1.10;99.90;;;;;;5073314;28;20343;-68
2022/04/02 00:58:46;;;;;;;16.47;12.67;;;1.10;99.90;;;;;;5074588;28;20641;-68
2022/04/02 01:01:14;;;;;;;15.77;12.40;;;1.10;99.90;;;;;;5073388;28;20197;-68
2022/04/02 01:03:41;;;;;;;14.20;12.67;;;1.10;99.90;;;;;;5074402;28;20264;-67
2022/04/02 01:06:10;;;;;;;10.90;9.53;;;1.00;99.90;;;;;;5057197;28;20709;-68
2022/04/02 01:08:37;;;;;;;12.33;9.70;;;1.00;99.90;;;;;;5067530;28;20209;-68
2022/04/02 01:11:04;;;;;;;12.93;10.20;;;1.10;99.90;;;;;;5073062;28;20259;-68
2022/04/02 01:13:34;;;;;;;12.50;10.10;;;1.00;99.90;;;;;;5071289;28;20220;-67
2022/04/02 01:16:01;;;;;;;16.77;12.47;;;1.00;99.90;;;;;;5073117;28;20205;-69
2022/04/02 01:18:28;;;;;;;20.07;13.13;;;1.00;99.90;;;;;;5074422;28;20646;-69
2022/04/02 01:20:55;;;;;;;17.13;13.13;;;0.90;99.90;;;;;;5073754;28;20221;-68
2022/04/02 01:23:29;;;;;;;16.57;13.60;;;0.90;99.90;;;;;;5076768;28;20193;-67
2022/04/02 01:25:57;;;;;;;16.63;13.77;;;0.90;99.90;;;;;;5077966;28;20240;-68
2022/04/02 01:28:24;;;;;;;12.53;10.93;;;1.00;99.90;;;;;;5076366;28;20522;-67
2022/04/02 01:30:51;;;;;;;15.73;10.93;;;1.00;99.90;;;;;;5075582;28;20213;-68
2022/04/02 01:33:18;;;;;;;11.77;10.57;;;1.00;99.90;;;;;;5077959;28;20260;-68
2022/04/02 01:35:45;;;;;;;14.80;11.40;;;0.90;99.90;;;;;;5078464;28;20288;-68
2022/04/02 01:38:12;;;;;;;12.43;11.13;;;0.90;99.90;;;;;;5076248;28;20209;-68
2022/04/02 01:40:40;;;;;;;16.20;12.33;;;0.90;99.90;;;;;;5064960;28;20205;-68
2022/04/02 01:43:07;;;;;;;16.73;12.20;;;0.90;99.90;;;;;;5071678;28;20208;-67
2022/04/02 01:45:34;;;;;;;14.23;11.47;;;0.80;99.90;;;;;;5077098;28;20233;-68
2022/04/02 01:48:01;;;;;;;13.70;11.63;;;0.80;99.90;;;;;;5077866;28;20638;-68
2022/04/02 01:50:28;;;;;;;12.77;10.60;;;0.80;99.90;;;;;;5068008;28;20241;-68
2022/04/02 01:52:54;;;;;;;13.63;11.07;;;0.80;99.90;;;;;;5065304;28;20230;-67
2022/04/02 01:55:21;;;;;;;15.00;9.60;;;0.80;99.90;;;;;;5063781;28;20225;-68
2022/04/02 01:57:50;;;;;;;14.47;9.70;;;0.80;99.90;;;;;;5069131;28;20268;-68
2022/04/02 02:00:17;;;;;;;11.03;9.03;;;0.90;99.90;;;;;;5059481;28;20213;-68
2022/04/02 02:02:44;;;;;;;14.30;10.13;;;0.70;99.90;;;;;;5069390;28;20209;-68
2022/04/02 02:05:11;;;;;;;15.47;10.83;;;0.70;99.90;;;;;;5071917;28;20228;-67
2022/04/02 02:07:38;;;;;;;9.73;8.20;;;0.70;99.90;;;;;;5075600;28;20273;-67
2022/04/02 02:10:05;;;;;;;11.60;9.00;;;0.70;99.90;;;;;;5074053;28;20292;-67
2022/04/02 02:12:33;;;;;;;11.60;10.13;;;0.70;99.90;;;;;;5078998;28;20297;-68
2022/04/02 02:15:01;;;;;;;12.37;10.60;;;0.70;99.90;;;;;;5079278;28;20259;-69
2022/04/02 02:17:28;;;;;;;12.00;10.70;;;0.70;99.90;;;;;;5064393;28;20265;-71
2022/04/02 02:19:55;;;;;;;13.43;11.60;;;0.70;99.90;;;;;;5064961;28;20206;-67
2022/04/02 02:22:22;;;;;;;11.43;10.23;;;0.70;99.90;;;;;;5072346;28;20308;-67
2022/04/02 02:24:48;;;;;;;14.33;10.83;;;0.70;99.90;;;;;;5077944;28;20307;-67
2022/04/02 02:27:15;;;;;;;11.93;10.47;;;0.70;99.90;;;;;;5075654;28;20205;-68
2022/04/02 02:29:42;;;;;;;12.27;9.90;;;0.70;99.90;;;;;;5072896;28;20674;-68
2022/04/02 02:32:10;;;;;;;8.23;7.43;;;0.70;99.90;;;;;;5077158;28;20213;-67
2022/04/02 02:37:21;;;;;;;13.33;10.20;;;0.60;99.90;;;;;;5075898;28;20276;-67
2022/04/02 02:39:48;;;;;;;13.00;10.00;;;0.60;99.90;;;;;;5064037;28;20713;-67
2022/04/02 02:42:15;;;;;;;16.03;10.90;;;0.60;99.90;;;;;;5074505;28;20289;-68
2022/04/02 02:44:42;;;;;;;15.47;10.80;;;0.60;99.90;;;;;;5064059;28;20233;-68
2022/04/02 02:47:11;;;;;;;13.77;9.90;;;0.60;99.90;;;;;;5079119;28;20209;-69
2022/04/02 02:49:38;;;;;;;12.27;10.50;;;0.60;99.90;;;;;;5081169;28;20209;-68
2022/04/02 02:52:06;;;;;;;15.00;12.50;;;0.60;99.90;;;;;;5067025;28;20201;-68
2022/04/02 02:54:33;;;;;;;14.37;12.23;;;0.50;99.90;;;;;;5083115;28;20225;-68
2022/04/02 02:57:00;;;;;;;13.50;10.63;;;0.50;99.90;;;;;;5077346;28;20201;-68
2022/04/02 02:59:26;;;;;;;12.63;10.93;;;0.50;99.90;;;;;;5081685;28;20202;-68
2022/04/02 03:01:53;;;;;;;13.03;11.40;;;0.50;99.90;;;;;;5080725;28;20213;-68
2022/04/02 03:04:23;;;;;;;12.50;10.50;;;0.50;99.90;;;;;;5081764;28;20198;-68
2022/04/02 03:06:50;;;;;;;12.03;9.93;;;0.50;99.90;;;;;;5080871;28;20220;-68
2022/04/02 03:09:17;;;;;;;13.80;10.63;;;0.50;99.90;;;;;;5078807;28;20228;-69
2022/04/02 03:11:44;;;;;;;18.33;11.67;;;0.50;99.90;;;;;;5078441;28;20185;-67
2022/04/02 03:14:11;;;;;;;14.43;10.73;;;0.50;99.90;;;;;;5076524;28;20228;-67
2022/04/02 03:16:38;;;;;;;13.50;10.57;;;0.50;99.90;;;;;;5077770;28;20277;-67
2022/04/02 03:19:06;;;;;;;17.30;12.67;;;0.50;99.90;;;;;;5074707;28;20213;-67
2022/04/02 03:21:34;;;;;;;11.90;10.67;;;0.50;99.90;;;;;;5071003;28;20592;-67
2022/04/02 03:24:01;;;;;;;13.67;11.67;;;0.60;99.90;;;;;;5076445;28;20233;-67
2022/04/02 03:26:28;;;;;;;13.93;10.37;;;0.60;99.90;;;;;;5075004;28;20204;-68
2022/04/02 03:28:55;;;;;;;10.53;9.50;;;0.60;99.90;;;;;;5076668;28;20219;-68
2022/04/02 03:31:22;;;;;;;13.30;10.53;;;0.60;99.90;;;;;;5076267;28;20579;-68
2022/04/02 03:33:49;;;;;;;12.30;9.53;;;0.60;99.90;;;;;;5076002;28;20224;-67
2022/04/02 03:36:16;;;;;;;13.20;10.17;;;0.60;99.90;;;;;;5076303;28;20269;-68
2022/04/02 03:38:44;;;;;;;14.03;10.73;;;0.60;99.90;;;;;;5073916;28;20201;-67
2022/04/02 03:41:12;;;;;;;12.50;9.60;;;0.50;99.90;;;;;;5074588;28;20295;-67
2022/04/02 03:43:39;;;;;;;12.93;10.30;;;0.50;99.90;;;;;;5075427;28;20205;-67
2022/04/02 03:48:51;;;;;;;13.53;10.43;;;0.50;99.90;;;;;;5074586;28;20498;-67
2022/04/02 03:51:18;;;;;;;12.53;9.97;;;0.50;99.90;;;;;;5076117;28;20210;-67
2022/04/02 03:53:47;;;;;;;13.53;10.93;;;0.50;99.90;;;;;;5076647;28;20221;-67
2022/04/02 03:56:14;;;;;;;13.30;11.63;;;0.50;99.90;;;;;;5074594;28;20213;-67
2022/04/02 03:58:41;;;;;;;14.20;11.83;;;0.40;99.90;;;;;;5074539;28;20300;-68
2022/04/02 04:01:08;;;;;;;12.40;10.63;;;0.50;99.90;;;;;;5073528;28;20205;-68
2022/04/02 04:03:34;;;;;;;12.67;10.73;;;0.50;99.90;;;;;;5077059;28;20233;-68
2022/04/02 04:06:01;;;;;;;12.23;10.50;;;0.50;99.90;;;;;;5076268;28;20200;-67
2022/04/02 04:08:28;;;;;;;13.17;10.23;;;0.60;99.90;;;;;;5074343;28;20241;-68
2022/04/02 04:10:57;;;;;;;12.43;9.30;;;0.60;99.90;;;;;;5071948;28;20264;-68
2022/04/02 04:13:24;;;;;;;12.73;10.57;;;0.60;99.90;;;;;;5075132;28;20296;-67
2022/04/02 04:15:51;;;;;;;11.87;9.63;;;0.60;99.90;;;;;;5076183;28;20227;-67
2022/04/02 04:18:18;;;;;;;13.37;11.40;;;0.60;99.90;;;;;;5066282;28;20259;-68
2022/04/02 04:20:44;;;;;;;17.50;13.47;;;0.60;99.90;;;;;;5070492;28;20229;-67
2022/04/02 04:23:12;;;;;;;14.83;11.37;;;0.60;99.90;;;;;;5068118;28;20209;-68
2022/04/02 04:25:39;;;;;;;15.47;12.60;;;0.60;99.90;;;;;;5069252;28;20255;-69
2022/04/02 04:28:08;;;;;;;11.60;10.20;;;0.60;99.90;;;;;;5075295;28;20205;-68
2022/04/02 04:30:34;;;;;;;15.03;11.57;;;0.60;99.90;;;;;;5073225;28;20201;-68
2022/04/02 04:33:02;;;;;;;13.20;11.60;;;0.60;99.90;;;;;;5073592;28;20294;-67
2022/04/02 04:35:29;;;;;;;14.40;11.70;;;0.60;99.90;;;;;;5074516;28;20271;-67
2022/04/02 04:37:56;;;;;;;15.80;12.33;;;0.60;99.90;;;;;;5068636;28;20236;-67
2022/04/02 04:40:23;;;;;;;13.27;9.83;;;0.60;99.90;;;;;;5072210;28;20208;-68
2022/04/02 04:42:50;;;;;;;9.77;8.77;;;0.60;99.90;;;;;;5074673;28;20588;-67
2022/04/02 04:45:18;;;;;;;11.00;9.90;;;0.60;99.90;;;;;;5073860;28;20236;-67
2022/04/02 04:47:46;;;;;;;12.07;9.40;;;0.60;99.90;;;;;;5069390;28;20201;-67
2022/04/02 04:50:12;;;;;;;10.10;8.57;;;0.60;99.90;;;;;;5070279;28;20591;-67
2022/04/02 04:52:40;;;;;;;13.83;10.20;;;0.60;99.90;;;;;;5075363;28;20227;-67
2022/04/02 04:55:07;;;;;;;10.77;9.13;;;0.60;99.90;;;;;;5072393;28;20226;-67
2022/04/02 04:57:34;;;;;;;11.67;9.23;;;0.60;99.90;;;;;;5071194;28;20288;-68
2022/04/02 05:00:01;;;;;;;7.67;6.47;;;0.70;99.90;;;;;;5077348;28;20213;-67
2022/04/02 05:02:30;;;;;;;6.40;5.80;;;0.60;99.90;;;;;;5063972;28;20269;-67
2022/04/02 05:04:56;;;;;;;7.30;6.20;;;0.70;99.90;;;;;;5078849;28;20219;-68
2022/04/02 05:07:24;;;;;;;9.10;6.60;;;0.70;99.90;;;;;;5076291;28;20572;-67
2022/04/02 05:09:51;;;;;;;7.00;5.90;;;0.70;99.90;;;;;;5069111;28;20272;-67
2022/04/02 05:12:18;;;;;;;6.00;5.13;;;0.70;99.90;;;;;;5075907;28;20240;-67
2022/04/02 05:14:46;;;;;;;5.13;4.63;;;0.70;99.90;;;;;;5066914;28;20406;-68
2022/04/02 05:17:13;;;;;;;4.87;4.37;;;0.70;99.90;;;;;;5077340;28;20213;-68
2022/04/02 05:19:41;;;;;;;5.97;4.33;;;0.70;99.90;;;;;;5077462;28;20634;-69
2022/04/02 05:22:10;;;;;;;3.97;3.67;;;0.70;99.90;;;;;;5078349;28;20231;-68
2022/04/02 05:24:37;;;;;;;4.00;3.60;;;0.70;99.90;;;;;;5077538;28;20268;-68
2022/04/02 05:27:05;;;;;;;5.20;4.03;;;0.70;99.90;;;;;;5071972;28;20216;-67
2022/04/02 05:29:32;;;;;;;5.33;4.43;;;0.70;99.90;;;;;;5075685;28;20216;-67
2022/04/02 05:31:59;;;;;;;5.53;4.77;;;0.70;99.90;;;;;;5079082;28;20232;-68
2022/04/02 05:34:26;;;;;;;4.90;4.40;;;0.70;99.90;;;;;;5070635;28;20225;-68
2022/04/02 05:36:54;;;;;;;4.53;3.93;;;0.70;99.90;;;;;;5078119;28;20251;-68
2022/04/02 05:39:21;;;;;;;3.77;3.03;;;0.80;99.90;;;;;;5072254;28;20236;-68
2022/04/02 05:41:49;;;;;;;3.93;3.47;;;0.70;99.90;;;;;;5076239;28;20642;-68
2022/04/02 05:44:16;;;;;;;3.80;3.40;;;0.70;99.90;;;;;;5077772;28;20208;-67
2022/04/02 05:46:43;;;;;;;5.13;4.63;;;0.80;99.90;;;;;;5077522;28;20233;-68
2022/04/02 05:49:11;;;;;;;6.33;5.00;;;0.70;99.90;;;;;;5068200;28;20248;-68
2022/04/02 05:51:39;;;;;;;6.33;4.43;;;0.60;99.90;;;;;;5078409;28;20213;-67
2022/04/02 05:54:07;;;;;;;5.23;4.60;;;0.70;99.90;;;;;;5077256;28;20241;-68
2022/04/02 05:56:34;;;;;;;6.37;4.63;;;0.70;99.90;;;;;;5068570;28;20202;-68
2022/04/02 05:59:05;;;;;;;5.87;4.50;;;0.60;99.90;;;;;;5065858;28;20212;-68
2022/04/02 06:01:32;;;;;;;5.03;4.33;;;0.60;99.90;;;;;;5076885;28;20261;-68
2022/04/02 06:03:59;;;;;;;5.97;4.77;;;0.60;99.90;;;;;;5074725;28;20198;-68
2022/04/02 06:06:26;;;;;;;7.53;6.00;;;0.60;99.90;;;;;;5077426;28;20244;-67
2022/04/02 06:08:53;;;;;;;7.50;6.23;;;0.60;99.90;;;;;;5073444;28;20213;-68
2022/04/02 06:11:22;;;;;;;9.13;7.50;;;0.60;99.90;;;;;;5077267;28;20201;-68
2022/04/02 06:13:49;;;;;;;7.63;6.80;;;0.60;99.90;;;;;;5075045;28;20209;-68
2022/04/02 06:16:16;;;;;;;11.07;8.13;;;0.60;99.90;;;;;;5076865;28;20229;-68
2022/04/02 06:18:43;;;;;;;14.40;8.87;;;0.60;99.90;;;;;;5070635;28;20228;-71
2022/04/02 06:21:12;;;;;;;12.20;9.57;;;0.60;99.90;;;;;;5078417;28;20294;-71
2022/04/02 06:23:39;;;;;;;10.37;8.37;;;0.60;99.90;;;;;;5066710;28;20202;-70
2022/04/02 06:26:06;;;;;;;11.37;8.70;;;0.60;99.90;;;;;;5074311;28;20208;-71
2022/04/02 06:28:36;;;;;;;11.73;9.10;;;0.50;99.90;;;;;;5075885;28;20732;-71
2022/04/02 06:31:03;;;;;;;13.67;10.40;;;0.50;99.90;;;;;;5075767;28;20293;-67
2022/04/02 06:33:30;;;;;;;12.60;10.90;;;0.50;99.90;;;;;;5078446;28;20205;-67
2022/04/02 06:35:57;;;;;;;12.27;10.40;;;0.50;99.90;;;;;;5073508;28;20268;-68
2022/04/02 06:38:24;;;;;;;12.80;10.37;;;0.60;99.90;;;;;;5069675;28;20688;-68
2022/04/02 06:40:51;;;;;;;10.50;9.30;;;0.70;99.90;;;;;;5068134;28;20700;-68
2022/04/02 06:43:18;;;;;;;10.13;9.03;;;0.70;99.90;;;;;;5072858;28;20307;-68
2022/04/02 06:45:47;;;;;;;9.97;7.80;;;0.70;99.90;;;;;;5062543;28;20301;-67
2022/04/02 06:48:14;;;;;;;8.47;6.67;;;0.70;99.90;;;;;;5072386;28;20259;-68
2022/04/02 06:50:42;;;;;;;10.47;7.57;;;0.70;99.90;;;;;;5071230;28;20232;-70
2022/04/02 06:53:10;;;;;;;10.50;8.00;;;0.70;99.90;;;;;;5076256;28;20767;-69
2022/04/02 06:55:37;;;;;;;7.60;6.80;;;0.70;99.90;;;;;;5070462;28;20674;-69
2022/04/02 06:58:04;;;;;;;7.93;6.60;;;0.70;99.90;;;;;;5074532;28;20239;-68
2022/04/02 07:00:32;;;;;;;6.93;6.10;;;0.70;99.90;;;;;;5068602;28;20239;-70
2022/04/02 07:03:00;;;;;;;6.53;5.33;;;0.70;99.90;;;;;;5065758;28;20209;-70
2022/04/02 07:05:27;;;;;;;5.23;4.03;;;0.70;99.90;;;;;;5066024;28;20639;-71
2022/04/02 07:07:54;;;;;;;5.47;3.63;;;0.70;99.90;;;;;;5063775;28;20236;-70
2022/04/02 07:10:21;;;;;;;3.97;3.13;;;0.70;99.90;;;;;;5061483;28;20206;-68
2022/04/02 07:12:48;;;;;;;4.13;3.00;;;0.70;99.90;;;;;;5073764;28;20201;-68
2022/04/02 07:15:15;;;;;;;5.13;3.47;;;0.80;99.90;;;;;;5073355;28;20213;-68
2022/04/02 07:17:43;;;;;;;3.60;2.93;;;0.80;99.90;;;;;;5071636;28;20574;-66
2022/04/02 07:20:13;;;;;;;4.63;2.87;;;0.90;99.90;;;;;;5072735;28;20212;-68
2022/04/02 07:22:43;;;;;;;4.93;3.10;;;0.90;99.90;;;;;;5061256;28;20226;-67
2022/04/02 07:25:12;;;;;;;5.37;3.40;;;1.00;99.90;;;;;;5073826;28;20229;-69
2022/04/02 07:27:40;;;;;;;4.30;3.10;;;0.90;99.90;;;;;;5062963;28;20206;-68
2022/04/02 07:30:10;;;;;;;4.03;3.03;;;1.00;99.90;;;;;;5066865;28;20210;-68
2022/04/02 07:32:38;;;;;;;5.37;3.10;;;1.10;99.90;;;;;;5071940;28;20259;-68
2022/04/02 07:35:05;;;;;;;6.23;3.83;;;1.10;99.90;;;;;;5074043;28;20225;-71
2022/04/02 07:37:50;;;;;;;4.47;3.50;;;1.10;99.90;;;;;;5077310;28;20240;-71
2022/04/02 07:40:24;;;;;;;6.23;3.90;;;1.20;99.90;;;;;;5059658;28;20295;-71
2022/04/02 07:43:01;;;;;;;11.27;6.30;;;1.20;99.90;;;;;;5069984;28;20343;-69
2022/04/02 07:45:32;;;;;;;9.70;7.33;;;1.30;99.90;;;;;;5068996;28;20536;-68
2022/04/02 07:48:00;;;;;;;7.33;5.40;;;1.30;99.90;;;;;;5075286;28;20217;-69
2022/04/02 07:50:29;;;;;;;5.10;4.37;;;1.30;99.90;;;;;;5064790;28;20251;-69
2022/04/02 07:52:58;;;;;;;5.77;4.20;;;1.40;99.90;;;;;;5071340;28;20224;-71
2022/04/02 07:55:29;;;;;;;6.70;4.30;;;1.40;99.90;;;;;;5072040;28;20224;-68
2022/04/02 07:58:02;;;;;;;7.30;5.53;;;1.40;99.90;;;;;;5078377;28;20233;-70
2022/04/02 08:00:35;;;;;;;9.10;5.77;;;1.40;99.90;;;;;;5074327;28;20205;-70
2022/04/02 08:03:02;;;;;;;6.27;5.60;;;1.30;99.90;;;;;;5069184;28;20201;-71
2022/04/02 08:05:29;;;;;;;8.23;5.17;;;1.30;99.90;;;;;;5069507;28;20202;-69
2022/04/02 08:07:58;;;;;;;6.47;4.63;;;1.30;99.90;;;;;;5076148;28;20201;-68
2022/04/02 08:10:27;;;;;;;6.30;4.30;;;1.30;99.90;;;;;;5068107;28;20214;-67
2022/04/02 08:12:57;;;;;;;5.33;3.90;;;1.30;99.90;;;;;;5060886;28;20224;-68
2022/04/02 08:15:25;;;;;;;5.93;3.97;;;1.40;99.90;;;;;;5062637;28;20236;-68
2022/04/02 08:17:54;;;;;;;7.93;5.10;;;1.40;99.90;;;;;;5067008;28;20220;-68
2022/04/02 08:20:22;;;;;;;5.77;3.97;;;1.40;99.90;;;;;;5073146;28;20263;-68
2022/04/02 08:22:49;;;;;;;6.13;3.53;;;1.50;99.90;;;;;;5070705;28;20204;-67
2022/04/02 08:25:18;;;;;;;5.83;4.40;;;1.50;99.90;;;;;;5070113;28;20725;-73
2022/04/02 08:27:55;;;;;;;5.53;4.17;;;1.60;99.90;;;;;;5069701;28;20280;-69
2022/04/02 08:30:31;;;;;;;4.60;3.93;;;1.50;99.90;;;;;;5072624;28;20324;-69
2022/04/02 08:33:29;;;;;;;5.10;4.00;;;1.60;99.90;;;;;;5073087;28;20265;-68
2022/04/02 08:36:07;;;;;;;5.70;4.17;;;1.70;99.90;;;;;;5068916;28;20256;-68
2022/04/02 08:38:43;;;;;;;5.40;4.30;;;1.70;99.90;;;;;;5065539;28;20202;-70
2022/04/02 08:41:42;;;;;;;6.80;3.97;;;1.70;99.90;;;;;;5064773;28;20224;-69
2022/04/02 08:44:56;;;;;;;5.30;4.20;;;1.80;99.90;;;;;;5068291;28;20899;-69
2022/04/02 08:48:01;;;;;;;6.90;4.17;;;1.80;99.90;;;;;;5067636;28;20288;-69
2022/04/02 08:50:30;;;;;;;6.80;4.33;;;1.80;99.90;;;;;;5062367;28;20599;-68
2022/04/02 08:53:01;;;;;;;4.57;3.80;;;1.70;99.90;;;;;;5060699;28;20296;-69
2022/04/02 08:55:42;;;;;;;4.57;3.63;;;1.90;99.90;;;;;;5073054;28;20709;-69
2022/04/02 08:58:11;;;;;;;5.07;3.50;;;1.90;99.90;;;;;;5073918;28;20205;-68
2022/04/02 09:00:44;;;;;;;3.90;3.33;;;2.00;99.90;;;;;;5069885;28;20212;-70
2022/04/02 09:03:41;;;;;;;3.60;3.23;;;2.10;99.90;;;;;;5072282;28;20231;-70
2022/04/02 09:06:30;;;;;;;5.47;4.00;;;2.10;99.90;;;;;;5063043;28;20299;-68
2022/04/02 09:09:06;;;;;;;6.27;3.87;;;2.10;99.90;;;;;;5071287;28;20593;-69
2022/04/02 09:12:03;;;;;;;5.87;3.90;;;2.20;99.90;;;;;;5075619;28;20212;-69
2022/04/02 09:14:57;;;;;;;5.27;4.13;;;2.20;99.90;;;;;;5056229;28;20209;-66
2022/04/02 09:17:36;;;;;;;6.70;5.50;;;2.20;99.90;;;;;;5070320;28;20593;-69
2022/04/02 09:20:31;;;;;;;6.77;5.10;;;2.20;99.90;;;;;;5075175;28;20209;-69
2022/04/02 09:23:09;;;;;;;5.33;3.90;;;2.20;99.90;;;;;;5068266;28;20270;-69
2022/04/02 09:26:06;;;;;;;8.00;4.60;;;2.30;99.90;;;;;;5061313;28;20260;-71
2022/04/02 09:28:45;;;;;;;5.93;4.80;;;2.40;99.90;;;;;;5067643;28;20403;-69
2022/04/02 09:32:05;;;;;;;5.10;4.03;;;2.50;99.90;;;;;;5065544;28;20710;-70
2022/04/02 09:35:13;;;;;;;5.37;3.80;;;2.60;99.90;;;;;;5007105;28;20208;-70
2022/04/02 09:38:19;;;;;;;5.93;4.07;;;2.70;99.90;;;;;;5009817;28;20203;-69
2022/04/02 09:40:49;;;;;;;5.43;4.40;;;2.80;99.90;;;;;;5075450;28;20215;-69
2022/04/02 09:43:26;;;;;;;5.37;4.57;;;2.90;99.90;;;;;;5066419;28;20201;-70
2022/04/02 09:46:24;;;;;;;5.00;4.30;;;2.90;99.90;;;;;;5066530;28;20234;-70
2022/04/02 09:48:59;;;;;;;8.10;5.03;;;2.90;99.90;;;;;;5063473;28;20197;-70
2022/04/02 09:51:32;;;;;;;6.10;4.57;;;3.00;99.90;;;;;;5074000;28;20193;-70
2022/04/02 09:54:04;;;;;;;7.97;5.43;;;3.10;99.90;;;;;;5072885;28;20204;-70
2022/04/02 09:56:36;;;;;;;7.17;5.60;;;3.10;99.90;;;;;;5077807;28;20217;-69
2022/04/02 09:59:05;;;;;;;12.73;7.23;;;3.20;99.90;;;;;;5062622;28;20720;-70
2022/04/02 10:01:38;;;;;;;10.80;8.27;;;3.30;99.90;;;;;;5073689;28;20206;-70
2022/04/02 10:04:14;;;;;;;12.73;8.50;;;3.30;99.90;;;;;;5066270;28;20208;-69
2022/04/02 10:06:47;;;;;;;9.43;7.50;;;3.40;99.90;;;;;;5062995;28;20667;-68
2022/04/02 10:09:15;;;;;;;9.47;7.00;;;3.50;99.90;;;;;;5075770;28;20640;-68
2022/04/02 10:11:48;;;;;;;10.03;6.43;;;3.50;99.90;;;;;;5076162;28;20193;-70
2022/04/02 10:14:19;;;;;;;7.07;6.27;;;3.60;99.90;;;;;;5079567;28;20216;-69
2022/04/02 10:16:50;;;;;;;8.77;6.10;;;3.80;99.90;;;;;;5071293;28;20717;-70
2022/04/02 10:19:19;;;;;;;9.40;5.80;;;3.90;99.90;;;;;;5076606;28;20267;-70
2022/04/02 10:21:51;;;;;;;7.90;5.50;;;4.00;99.90;;;;;;5073445;28;20237;-70
2022/04/02 10:24:22;;;;;;;8.27;6.17;;;4.10;99.90;;;;;;5065600;28;20205;-69
2022/04/02 10:26:54;;;;;;;7.80;6.50;;;4.20;99.90;;;;;;5074721;28;20293;-70
2022/04/02 10:29:35;;;;;;;7.90;6.10;;;4.20;99.90;;;;;;5071245;28;20197;-68
2022/04/02 10:32:19;;;;;;;7.90;5.77;;;4.20;99.90;;;;;;5074479;28;20201;-69
2022/04/02 10:34:55;;;;;;;7.53;5.13;;;4.30;99.90;;;;;;5068179;28;20209;-70
2022/04/02 10:37:30;;;;;;;11.67;6.03;;;4.30;99.90;;;;;;5072030;28;20251;-70
2022/04/02 10:40:00;;;;;;;9.97;5.80;;;4.50;99.90;;;;;;5063517;28;20295;-71
2022/04/02 10:42:33;;;;;;;9.27;7.10;;;4.50;99.90;;;;;;5071141;28;20200;-70
2022/04/02 10:45:04;;;;;;;9.43;6.20;;;4.60;99.90;;;;;;5073291;28;20226;-69
2022/04/02 10:47:31;;;;;;;6.10;5.17;;;4.70;99.90;;;;;;5078415;28;20198;-71
2022/04/02 10:50:04;;;;;;;7.10;5.50;;;4.90;99.90;;;;;;5071367;28;20216;-71
2022/04/02 10:52:33;;;;;;;7.57;5.37;;;4.90;99.90;;;;;;5077663;28;20293;-73
2022/04/02 10:55:00;;;;;;;5.53;4.90;;;4.90;99.90;;;;;;5075609;28;20205;-71
2022/04/02 10:57:28;;;;;;;6.27;5.50;;;4.90;99.90;;;;;;5078573;28;20317;-71
2022/04/02 11:00:01;;;;;;;7.40;6.13;;;4.90;99.90;;;;;;5072144;28;20251;-71
2022/04/02 11:02:39;;;;;;;9.20;6.50;;;5.00;99.90;;;;;;5074768;28;20232;-71
2022/04/02 11:05:08;;;;;;;10.50;6.07;;;5.10;99.90;;;;;;5073054;28;20198;-69
2022/04/02 11:07:40;;;;;;;10.07;5.67;;;5.20;99.90;;;;;;5076922;28;20207;-70
2022/04/02 11:10:08;;;;;;;7.37;5.47;;;5.20;99.90;;;;;;5077568;28;20294;-70
2022/04/02 11:12:39;;;;;;;10.83;5.30;;;5.30;99.90;;;;;;5068218;28;20339;-69
2022/04/02 11:15:14;;;;;;;9.50;6.87;;;5.30;99.90;;;;;;5073866;28;20202;-71
2022/04/02 11:17:42;;;;;;;6.93;5.83;;;5.40;99.90;;;;;;5068445;28;20272;-71
2022/04/02 11:20:13;;;;;;;8.63;5.97;;;5.60;99.90;;;;;;5072569;28;20213;-68
2022/04/02 11:23:04;;;;;;;7.30;5.37;;;5.70;99.90;;;;;;5076097;28;20213;-69
2022/04/02 11:25:35;;;;;;;6.90;5.57;;;5.80;99.90;;;;;;5072373;28;20576;-71
2022/04/02 11:28:11;;;;;;;8.47;6.17;;;5.90;99.90;;;;;;5074767;28;20266;-70
2022/04/02 11:30:40;;;;;;;9.80;6.33;;;5.90;99.90;;;;;;5069749;28;20228;-70
2022/04/02 11:33:09;;;;;;;8.97;6.23;;;6.00;99.90;;;;;;5075606;28;20209;-70
2022/04/02 11:35:40;;;;;;;8.40;5.63;;;6.00;99.90;;;;;;5065822;28;20260;-70
2022/04/02 11:38:27;;;;;;;13.63;6.00;;;6.10;99.90;;;;;;5068800;28;20233;-70
2022/04/02 11:40:58;;;;;;;10.27;6.07;;;6.10;99.90;;;;;;5071274;28;20209;-70
2022/04/02 11:43:32;;;;;;;8.43;5.47;;;6.20;99.90;;;;;;5074117;28;20205;-70
2022/04/02 11:46:00;;;;;;;7.20;6.07;;;6.20;99.90;;;;;;5067029;28;20237;-70
2022/04/02 11:48:32;;;;;;;7.73;5.57;;;6.20;99.90;;;;;;5069509;28;20205;-71
2022/04/02 11:51:11;;;;;;;8.20;5.80;;;6.20;99.90;;;;;;5068439;28;20201;-71
2022/04/02 11:53:40;;;;;;;10.13;6.50;;;6.20;99.90;;;;;;5070468;28;20274;-70
2022/04/02 11:56:22;;;;;;;14.37;6.23;;;6.30;99.90;;;;;;5065779;28;20236;-70
2022/04/02 11:58:50;;;;;;;6.47;5.53;;;6.40;99.90;;;;;;5057784;28;20642;-70
2022/04/02 12:01:21;;;;;;;7.33;5.67;;;6.40;99.90;;;;;;5065537;28;20655;-69
2022/04/02 12:04:05;;;;;;;8.10;6.03;;;6.50;99.90;;;;;;5065620;28;20213;-70
2022/04/02 12:06:35;;;;;;;8.57;5.27;;;6.40;99.90;;;;;;5070872;28;20201;-72
2022/04/02 12:09:12;;;;;;;6.03;4.97;;;6.50;99.90;;;;;;5064297;28;20623;-71
2022/04/02 12:11:43;;;;;;;8.00;5.07;;;6.40;99.90;;;;;;5063696;28;20216;-71
2022/04/02 12:14:10;;;;;;;6.47;5.23;;;6.40;99.90;;;;;;5068354;28;20209;-72
2022/04/02 12:16:41;;;;;;;8.83;5.27;;;6.40;99.90;;;;;;5061802;28;20243;-71
2022/04/02 12:19:12;;;;;;;7.27;5.30;;;6.30;99.90;;;;;;5067426;28;20240;-71
2022/04/02 12:21:43;;;;;;;10.53;5.47;;;6.30;99.90;;;;;;5072043;28;20234;-71
2022/04/02 12:24:13;;;;;;;9.87;5.60;;;6.40;99.90;;;;;;5065557;28;20301;-70
2022/04/02 12:26:40;;;;;;;9.20;6.13;;;6.40;99.90;;;;;;5061717;28;20248;-71
2022/04/02 12:29:07;;;;;;;8.87;6.40;;;6.50;99.90;;;;;;5068472;28;20208;-71
2022/04/02 12:31:35;;;;;;;7.27;5.80;;;6.40;99.90;;;;;;5067223;28;20296;-72
2022/04/02 12:34:04;;;;;;;8.13;6.40;;;6.50;99.90;;;;;;5067690;28;20563;-70
2022/04/02 12:36:33;;;;;;;9.73;5.03;;;6.50;99.90;;;;;;5070431;28;20232;-70
2022/04/02 12:39:07;;;;;;;8.33;5.80;;;6.50;99.90;;;;;;5063822;28;20205;-70
2022/04/02 12:41:46;;;;;;;7.70;5.13;;;6.50;99.80;;;;;;5059247;28;20566;-70
2022/04/02 12:44:18;;;;;;;7.23;5.57;;;6.60;99.80;;;;;;5064888;28;20235;-71
2022/04/02 12:46:45;;;;;;;7.33;5.63;;;6.60;99.50;;;;;;5065366;28;20243;-71
2022/04/02 12:49:29;;;;;;;10.77;5.20;;;6.60;99.50;;;;;;5064506;28;20297;-71
2022/04/02 12:52:11;;;;;;;8.00;6.23;;;6.60;99.40;;;;;;5066741;28;20248;-70
2022/04/02 12:54:43;;;;;;;9.10;6.00;;;6.60;99.20;;;;;;5066419;28;20263;-71
2022/04/02 12:57:15;;;;;;;9.83;6.93;;;6.60;99.00;;;;;;5065277;28;20237;-70
2022/04/02 12:59:43;;;;;;;9.60;6.63;;;6.60;99.10;;;;;;5060228;28;20214;-71
2022/04/02 13:02:15;;;;;;;6.80;5.73;;;6.60;99.10;;;;;;5067020;28;20208;-71
2022/04/02 13:04:52;;;;;;;12.00;7.17;;;6.70;99.10;;;;;;5066345;28;20216;-71
2022/04/02 13:07:21;;;;;;;9.10;5.87;;;6.60;99.10;;;;;;5070429;28;20201;-71
2022/04/02 13:09:51;;;;;;;10.63;5.73;;;6.70;99.00;;;;;;5065761;28;20213;-71
2022/04/02 13:12:22;;;;;;;10.83;5.90;;;6.70;98.70;;;;;;5070736;28;20202;-70
2022/04/02 13:14:57;;;;;;;7.83;5.30;;;6.80;99.10;;;;;;5063596;28;20246;-71